KRWF/RWF METAR and TAF weather

Enter ICAO airport designator
Station Type Date Time Source
KRWF METAR 2020/12/06 01:53 UTC NOAA

KRWF 060153Z AUTO 01005KT 10SM CLR 02/M03 A3010 RMK AO2 SLP208 T00171028


Station Type Date Time Source
KRWF Decoded METAR 2020/12/06 01:53 UTC NOAA

REDWOOD FALLS MUNICIPAL, MN, United States (KRWF) 44-33N 95-05W 311M
Dec 05, 2020 - 08:53 PM EST / 2020.12.06 0153 UTC
Wind: from the N (010 degrees) at 6 MPH (5 KT):0
Visibility: 10 mile(s):0
Sky conditions: clear
Temperature: 35.1 F (1.7 C)
Dew Point: 27.0 F (-2.8 C)
Relative Humidity: 71%
Pressure (altimeter): 30.1 in. Hg (1019 hPa)
ob: KRWF 060153Z AUTO 01005KT 10SM CLR 02/M03 A3010 RMK AO2 SLP208 T00171028
cycle: 2

Station Type Date Time Source
KRWF TAF 2020/12/05 18:22 UTC NOAA

TAF KRWF 051720Z 0518/0618 30009KT P6SM FEW250
FM061100 33004KT 6SM BR SCT040
FM061500 30004KT P6SM SCT040 BKN150

Example: see airport list